createdAt,value
2022-07-27T00:02:12.963Z,80.40
2022-07-27T00:07:17.553Z,80.30
2022-07-27T00:12:20.962Z,80.50
2022-07-27T00:17:24.272Z,80.50
2022-07-27T00:22:29.030Z,80.30
2022-07-27T00:27:32.297Z,80.60
2022-07-27T00:32:35.415Z,80.60
2022-07-27T00:37:41.041Z,80.70
2022-07-27T00:42:44.367Z,80.90
2022-07-27T00:47:51.706Z,80.90
2022-07-27T00:52:59.226Z,80.80
2022-07-27T00:58:03.681Z,81.20
2022-07-27T01:03:09.333Z,81.00
2022-07-27T01:08:15.321Z,81.40
2022-07-27T01:13:19.055Z,81.40
2022-07-27T01:18:31.148Z,81.40
2022-07-27T01:23:36.216Z,81.20
2022-07-27T01:28:39.596Z,80.90
2022-07-27T01:33:42.888Z,80.40
2022-07-27T01:38:47.854Z,79.90
2022-07-27T01:43:51.125Z,79.60
2022-07-27T01:48:55.119Z,79.60
2022-07-27T01:53:59.833Z,80.30
2022-07-27T01:59:03.194Z,79.50
2022-07-27T02:04:06.510Z,79.30
2022-07-27T02:09:11.297Z,79.20
2022-07-27T02:14:14.740Z,79.00
2022-07-27T02:19:18.523Z,79.10
2022-07-27T02:24:23.120Z,79.00
2022-07-27T02:29:26.304Z,79.00
2022-07-27T02:34:29.904Z,78.80
2022-07-27T02:39:34.444Z,78.70
2022-07-27T02:44:37.830Z,78.60
2022-07-27T02:49:41.056Z,78.60
2022-07-27T02:54:45.559Z,78.80
2022-07-27T02:59:48.682Z,78.80
2022-07-27T03:04:51.992Z,78.80
2022-07-27T03:09:56.691Z,78.70
2022-07-27T03:14:59.885Z,78.80
2022-07-27T03:20:03.160Z,78.90
2022-07-27T03:25:09.299Z,78.60
2022-07-27T03:30:13.256Z,78.80
2022-07-27T03:35:16.547Z,78.60
2022-07-27T03:40:21.362Z,78.70
2022-07-27T03:45:24.765Z,78.80
2022-07-27T03:50:28.268Z,78.70
2022-07-27T03:55:32.942Z,78.70
2022-07-27T04:00:36.125Z,78.60
2022-07-27T04:05:39.447Z,78.40
2022-07-27T04:10:44.655Z,78.30
2022-07-27T04:15:48.717Z,78.20
2022-07-27T04:20:51.872Z,78.30
2022-07-27T04:25:57.036Z,78.20
2022-07-27T04:31:00.358Z,78.10
2022-07-27T04:36:03.600Z,78.00
2022-07-27T04:41:08.128Z,78.20
2022-07-27T04:46:15.275Z,78.10
2022-07-27T04:51:19.596Z,78.10
2022-07-27T04:56:24.227Z,77.90
2022-07-27T05:01:31.673Z,78.00
2022-07-27T05:06:38.262Z,77.80
2022-07-27T05:11:51.165Z,77.80
2022-07-27T05:16:55.345Z,77.90
2022-07-27T05:21:58.748Z,77.70
2022-07-27T05:27:03.887Z,77.70
2022-07-27T05:32:07.908Z,77.70
2022-07-27T05:37:10.997Z,77.90
2022-07-27T05:42:15.508Z,77.80
2022-07-27T05:47:18.655Z,77.90
2022-07-27T05:52:21.814Z,77.80
2022-07-27T05:57:26.301Z,77.50
2022-07-27T06:02:31.614Z,77.40
2022-07-27T06:07:52.193Z,77.60
2022-07-27T06:12:57.020Z,77.50
2022-07-27T06:18:00.201Z,77.70
2022-07-27T06:23:07.677Z,77.70
2022-07-27T06:28:13.126Z,77.80
2022-07-27T06:33:16.919Z,78.00
2022-07-27T06:38:20.691Z,78.50
2022-07-27T06:43:27.281Z,77.70
2022-07-27T06:48:30.702Z,77.60
2022-07-27T06:53:36.269Z,77.40
2022-07-27T06:58:42.009Z,77.40
2022-07-27T07:03:45.384Z,77.10
2022-07-27T07:08:48.818Z,76.70
2022-07-27T07:13:53.570Z,76.60
2022-07-27T07:18:56.863Z,76.10
2022-07-27T07:23:59.971Z,75.70
2022-07-27T07:29:05.106Z,74.50
2022-07-27T07:34:08.351Z,73.80
2022-07-27T07:39:11.946Z,74.20
2022-07-27T07:44:16.940Z,74.20
2022-07-27T07:49:33.293Z,74.10
2022-07-27T07:54:43.370Z,73.70
2022-07-27T07:59:47.930Z,72.70
2022-07-27T08:04:51.251Z,72.10
2022-07-27T08:09:56.997Z,70.70
2022-07-27T08:15:01.856Z,70.00
2022-07-27T08:20:07.215Z,70.40
2022-07-27T08:25:11.845Z,70.40
2022-07-27T08:30:16.627Z,70.20
2022-07-27T08:35:22.248Z,71.20
2022-07-27T08:40:44.435Z,70.50
2022-07-27T08:45:55.190Z,70.10
2022-07-27T08:50:58.962Z,68.90
2022-07-27T08:56:06.771Z,67.80
2022-07-27T09:01:16.102Z,67.40
2022-07-27T09:06:44.538Z,67.10
2022-07-27T09:12:05.419Z,67.20
2022-07-27T09:22:50.902Z,66.00
2022-07-27T09:27:56.212Z,64.40
2022-07-27T09:33:03.081Z,64.30
2022-07-27T09:38:19.113Z,65.90
2022-07-27T09:48:46.998Z,63.80
2022-07-27T09:53:50.683Z,62.70
2022-07-27T09:58:55.836Z,61.40
2022-07-27T10:04:07.207Z,61.10
2022-07-27T10:09:10.646Z,61.90
2022-07-27T10:14:14.207Z,61.40
2022-07-27T10:19:22.952Z,62.40
2022-07-27T10:24:29.513Z,62.70
2022-07-27T10:29:33.451Z,62.80
2022-07-27T10:34:42.040Z,61.40
2022-07-27T10:39:47.360Z,59.40
2022-07-27T10:44:55.179Z,58.90
2022-07-27T10:50:33.461Z,59.00
2022-07-27T10:55:50.449Z,59.50
2022-07-27T11:01:00.678Z,58.30
2022-07-27T11:06:31.340Z,57.50
2022-07-27T11:11:34.864Z,58.00
2022-07-27T11:16:54.113Z,57.10
2022-07-27T11:22:04.459Z,57.00
2022-07-27T11:27:17.139Z,57.60
2022-07-27T11:32:21.912Z,56.10
2022-07-27T11:37:26.959Z,55.40
2022-07-27T11:42:39.279Z,56.40
2022-07-27T11:47:42.762Z,57.00
2022-07-27T11:53:01.614Z,56.30
2022-07-27T11:58:05.897Z,55.10
2022-07-27T12:03:10.162Z,54.20
2022-07-27T12:08:15.432Z,53.90
2022-07-27T12:13:20.054Z,54.60
2022-07-27T12:18:23.442Z,54.30
2022-07-27T12:23:31.920Z,53.90
2022-07-27T12:28:35.545Z,54.30
2022-07-27T12:33:39.733Z,54.00
2022-07-27T12:38:46.794Z,52.10
2022-07-27T12:44:06.201Z,52.00
2022-07-27T12:49:17.923Z,51.20
2022-07-27T12:54:24.098Z,49.10
2022-07-27T12:59:27.416Z,47.80
2022-07-27T13:04:31.088Z,46.20
2022-07-27T13:10:02.876Z,45.00
2022-07-27T13:14:59.356Z,46.10
2022-07-27T13:20:03.160Z,47.80
2022-07-27T13:25:16.311Z,47.00
2022-07-27T13:30:21.301Z,45.50
2022-07-27T13:35:25.049Z,46.50
2022-07-27T13:40:29.873Z,47.30
2022-07-27T13:45:43.188Z,47.10
2022-07-27T13:50:46.981Z,46.60
2022-07-27T13:55:51.753Z,47.50
2022-07-27T14:00:57.291Z,46.40
2022-07-27T14:06:01.343Z,46.70
2022-07-27T14:11:07.354Z,48.50
2022-07-27T14:16:11.008Z,49.30
2022-07-27T14:21:15.222Z,49.80
2022-07-27T14:26:20.059Z,49.90
2022-07-27T14:31:23.817Z,49.80
2022-07-27T14:36:27.187Z,49.50
2022-07-27T14:41:31.999Z,49.50
2022-07-27T14:46:35.443Z,49.60
2022-07-27T14:51:38.817Z,49.10
2022-07-27T14:56:43.726Z,48.80
2022-07-27T15:01:46.945Z,49.00
2022-07-27T15:06:50.302Z,49.20
2022-07-27T15:11:55.179Z,49.70
2022-07-27T15:16:58.446Z,50.30
2022-07-27T15:22:01.723Z,50.30
2022-07-27T15:27:06.372Z,50.00
2022-07-27T15:32:10.643Z,50.30
2022-07-27T15:37:14.614Z,50.20
2022-07-27T15:42:19.184Z,50.30
2022-07-27T15:47:22.441Z,50.00
2022-07-27T15:52:25.570Z,49.60
2022-07-27T15:57:30.066Z,50.00
2022-07-27T16:02:33.214Z,50.40
2022-07-27T16:07:41.789Z,50.20
2022-07-27T16:12:46.620Z,50.10
2022-07-27T16:17:49.856Z,50.00
2022-07-27T16:22:53.048Z,49.60
2022-07-27T16:27:57.627Z,49.90
2022-07-27T16:33:01.424Z,50.20
2022-07-27T16:38:04.554Z,50.30
2022-07-27T16:43:09.231Z,50.40
2022-07-27T16:48:13.078Z,50.70
2022-07-27T16:53:17.330Z,50.80
2022-07-27T16:58:22.006Z,50.90
2022-07-27T17:03:25.218Z,50.90
2022-07-27T17:08:28.371Z,50.90
2022-07-27T17:13:34.208Z,50.90
2022-07-27T17:18:40.416Z,51.10
2022-07-27T17:23:44.211Z,51.10
2022-07-27T17:28:48.814Z,51.10
2022-07-27T17:33:52.536Z,51.20
2022-07-27T17:38:56.167Z,51.20
2022-07-27T17:44:01.171Z,51.40
2022-07-27T17:49:04.790Z,51.60
2022-07-27T17:54:08.065Z,51.70
2022-07-27T17:59:35.900Z,51.80
2022-07-27T18:04:39.361Z,51.90
2022-07-27T18:09:42.927Z,52.00
2022-07-27T18:15:01.273Z,52.00
2022-07-27T18:20:04.928Z,52.30
2022-07-27T18:25:09.779Z,52.40
2022-07-27T18:30:17.605Z,52.60
2022-07-27T18:35:20.752Z,52.80
2022-07-27T18:40:24.120Z,53.00
2022-07-27T18:45:34.383Z,52.90
2022-07-27T18:50:39.718Z,53.20
2022-07-27T18:55:43.374Z,53.30
2022-07-27T19:00:48.028Z,53.50
2022-07-27T19:05:52.951Z,53.60
2022-07-27T19:10:56.323Z,53.80
2022-07-27T19:16:01.567Z,54.00
2022-07-27T19:21:04.785Z,54.30
2022-07-27T19:26:08.964Z,54.60
2022-07-27T19:31:23.199Z,54.70
2022-07-27T19:36:26.825Z,55.00
2022-07-27T19:41:29.941Z,55.20
2022-07-27T19:46:34.751Z,55.60
2022-07-27T19:51:37.997Z,55.90
2022-07-27T19:56:41.210Z,56.10
2022-07-27T20:01:45.865Z,56.30
2022-07-27T20:06:49.086Z,57.40
2022-07-27T20:11:54.492Z,57.10
2022-07-27T20:17:03.026Z,57.30
2022-07-27T20:22:06.947Z,57.60
2022-07-27T20:27:10.162Z,57.80
2022-07-27T20:32:16.842Z,58.00
2022-07-27T20:37:20.148Z,58.10
2022-07-27T20:42:27.898Z,58.20
2022-07-27T20:47:34.817Z,58.30
2022-07-27T20:52:39.116Z,58.60
2022-07-27T20:57:44.474Z,58.90
2022-07-27T21:02:49.565Z,59.20
2022-07-27T21:07:53.364Z,59.50
2022-07-27T21:12:56.847Z,59.60
2022-07-27T21:18:01.994Z,59.90
2022-07-27T21:23:24.419Z,60.10
2022-07-27T21:28:27.766Z,60.20
2022-07-27T21:33:37.573Z,60.40
2022-07-27T22:18:37.295Z,61.10
2022-07-27T22:23:41.099Z,62.00
2022-07-27T22:28:44.239Z,62.60
2022-07-27T22:33:48.861Z,63.20
2022-07-27T22:38:52.037Z,63.60
2022-07-27T22:43:55.144Z,63.90
2022-07-27T22:48:59.886Z,64.20
2022-07-27T22:54:03.076Z,64.30
2022-07-27T22:59:06.352Z,64.70
2022-07-27T23:04:11.344Z,65.00
2022-07-27T23:09:15.090Z,65.40
2022-07-27T23:14:19.102Z,65.70
2022-07-27T23:19:24.065Z,65.90
2022-07-27T23:24:28.862Z,66.10
2022-07-27T23:29:32.773Z,66.30
2022-07-27T23:34:37.409Z,66.60
2022-07-27T23:39:40.814Z,67.00
2022-07-27T23:44:44.133Z,67.30
2022-07-27T23:49:49.480Z,67.40
2022-07-27T23:54:52.647Z,67.80
2022-07-27T23:59:55.853Z,68.10
